createdAt,value
2018-07-28T00:00:45.141Z,99.90
2018-07-28T00:03:13.456Z,99.90
2018-07-28T00:08:09.959Z,99.90
2018-07-28T00:10:38.309Z,99.90
2018-07-28T00:13:07.437Z,99.90
2018-07-28T00:15:36.570Z,99.90
2018-07-28T00:20:33.979Z,99.90
2018-07-28T00:23:03.425Z,99.90
2018-07-28T00:25:38.797Z,99.90
2018-07-28T00:30:37.069Z,99.90
2018-07-28T00:33:05.268Z,99.90
2018-07-28T00:38:01.325Z,99.90
2018-07-28T00:40:30.066Z,99.90
2018-07-28T00:42:59.009Z,99.90
2018-07-28T00:45:27.153Z,99.90
2018-07-28T00:50:24.484Z,99.90
2018-07-28T00:52:52.773Z,99.90
2018-07-28T00:55:20.972Z,99.90
2018-07-28T01:00:18.480Z,99.90
2018-07-28T01:02:47.613Z,99.90
2018-07-28T01:05:15.778Z,99.90
2018-07-28T01:07:45.578Z,99.90
2018-07-28T01:10:13.886Z,99.90
2018-07-28T01:12:42.693Z,99.90
2018-07-28T01:15:12.808Z,99.90
2018-07-28T01:17:41.429Z,99.90
2018-07-28T01:20:11.177Z,99.90
2018-07-28T01:22:39.991Z,99.90
2018-07-28T01:25:09.593Z,99.90
2018-07-28T01:27:38.165Z,99.90
2018-07-28T01:30:11.336Z,99.90
2018-07-28T01:32:39.644Z,99.90
2018-07-28T01:35:08.629Z,99.90
2018-07-28T01:37:37.907Z,99.90
2018-07-28T01:40:07.138Z,99.90
2018-07-28T01:42:35.468Z,99.90
2018-07-28T01:45:04.812Z,99.90
2018-07-28T01:47:33.268Z,99.90
2018-07-28T01:50:01.741Z,99.90
2018-07-28T01:52:30.781Z,99.90
2018-07-28T01:54:59.312Z,99.90
2018-07-28T01:57:27.398Z,99.90
2018-07-28T01:59:55.733Z,99.90
2018-07-28T02:02:25.829Z,99.90
2018-07-28T02:04:54.423Z,99.90
2018-07-28T02:07:22.618Z,99.90
2018-07-28T02:14:47.901Z,99.90
2018-07-28T02:17:16.447Z,99.90
2018-07-28T02:19:45.085Z,99.90
2018-07-28T02:22:13.670Z,99.90
2018-07-28T02:24:42.389Z,99.90
2018-07-28T02:27:11.105Z,99.90
2018-07-28T02:29:39.487Z,99.90
2018-07-28T02:32:07.592Z,99.90
2018-07-28T02:34:35.866Z,99.90
2018-07-28T02:37:04.102Z,99.90
2018-07-28T02:42:00.307Z,99.90
2018-07-28T02:44:29.018Z,99.90
2018-07-28T02:46:57.272Z,99.90
2018-07-28T02:49:25.790Z,99.90
2018-07-28T02:54:22.858Z,99.90
2018-07-28T02:59:19.041Z,99.90
2018-07-28T03:01:47.637Z,99.90
2018-07-28T03:04:16.790Z,99.90
2018-07-28T03:06:45.741Z,99.90
2018-07-28T03:09:14.233Z,99.90
2018-07-28T03:11:43.374Z,99.90
2018-07-28T03:14:11.643Z,99.90
2018-07-28T03:19:08.126Z,99.90
2018-07-28T03:21:36.201Z,99.90
2018-07-28T03:24:04.677Z,99.90
2018-07-28T03:26:33.509Z,99.90
2018-07-28T03:29:01.608Z,99.90
2018-07-28T03:31:29.813Z,99.90
2018-07-28T03:33:58.765Z,99.90
2018-07-28T03:38:55.981Z,99.90
2018-07-28T03:41:25.025Z,99.90
2018-07-28T03:46:21.584Z,99.90
2018-07-28T03:51:19.441Z,99.90
2018-07-28T03:53:47.533Z,99.90
2018-07-28T03:56:15.668Z,99.90
2018-07-28T03:58:44.124Z,99.90
2018-07-28T04:01:12.352Z,99.90
2018-07-28T04:03:40.641Z,99.90
2018-07-28T04:06:08.830Z,99.90
2018-07-28T04:13:34.112Z,99.90
2018-07-28T04:16:03.364Z,99.90
2018-07-28T04:18:31.653Z,99.90
2018-07-28T04:21:00.471Z,99.90
2018-07-28T04:23:29.402Z,99.90
2018-07-28T04:25:58.759Z,99.90
2018-07-28T04:28:26.864Z,99.90
2018-07-28T04:30:55.565Z,99.90
2018-07-28T04:33:24.680Z,99.90
2018-07-28T04:38:21.891Z,99.90
2018-07-28T04:40:50.443Z,99.90
2018-07-28T04:43:18.529Z,99.90
2018-07-28T04:45:48.065Z,99.90
2018-07-28T04:48:16.325Z,99.90
2018-07-28T04:50:45.313Z,99.90
2018-07-28T04:53:14.357Z,99.90
2018-07-28T04:55:44.345Z,99.90
2018-07-28T04:58:12.717Z,99.90
2018-07-28T05:00:40.906Z,99.90
2018-07-28T05:03:09.646Z,99.90
2018-07-28T05:08:07.511Z,99.90
2018-07-28T05:10:36.105Z,99.90
2018-07-28T05:13:05.186Z,99.90
2018-07-28T05:18:01.278Z,99.90
2018-07-28T05:20:30.004Z,99.90
2018-07-28T05:22:59.205Z,99.90
2018-07-28T05:25:27.356Z,99.90
2018-07-28T05:27:55.897Z,99.90
2018-07-28T05:32:52.903Z,99.90
2018-07-28T05:35:21.002Z,99.90
2018-07-28T05:37:50.089Z,99.90
2018-07-28T05:40:18.243Z,99.90
2018-07-28T05:42:46.361Z,99.90
2018-07-28T05:45:15.505Z,99.90
2018-07-28T05:47:44.532Z,99.90
2018-07-28T05:50:13.453Z,99.90
2018-07-28T05:52:41.601Z,99.90
2018-07-28T05:55:10.385Z,99.90
2018-07-28T05:57:38.865Z,99.90
2018-07-28T06:00:07.436Z,99.90
2018-07-28T06:02:36.347Z,99.90
2018-07-28T06:05:05.801Z,99.90
2018-07-28T06:07:34.521Z,99.90
2018-07-28T06:10:02.711Z,99.90
2018-07-28T06:12:31.949Z,99.90
2018-07-28T06:17:29.421Z,99.90
2018-07-28T06:22:27.499Z,99.90
2018-07-28T06:24:55.633Z,99.90
2018-07-28T06:27:24.670Z,99.90
2018-07-28T06:29:53.673Z,99.90
2018-07-28T06:34:51.676Z,99.90
2018-07-28T06:39:48.371Z,99.90
2018-07-28T06:42:16.947Z,99.90
2018-07-28T06:44:45.150Z,99.90
2018-07-28T06:47:13.408Z,99.90
2018-07-28T06:49:42.189Z,99.90
2018-07-28T06:52:10.771Z,99.90
2018-07-28T06:54:38.998Z,99.90
2018-07-28T07:02:04.133Z,99.90
2018-07-28T07:04:33.573Z,99.90
2018-07-28T07:07:01.788Z,99.90
2018-07-28T07:09:30.579Z,99.90
2018-07-28T07:12:01.003Z,99.90
2018-07-28T07:14:29.791Z,99.90
2018-07-28T07:16:58.473Z,99.90
2018-07-28T07:19:26.649Z,99.90
2018-07-28T07:21:55.220Z,99.90
2018-07-28T07:24:23.909Z,99.90
2018-07-28T07:26:52.490Z,99.90
2018-07-28T07:29:21.176Z,99.90
2018-07-28T07:31:50.096Z,99.90
2018-07-28T07:34:18.757Z,99.90
2018-07-28T07:36:47.282Z,99.90
2018-07-28T07:39:16.094Z,99.90
2018-07-28T07:44:13.181Z,99.90
2018-07-28T07:46:42.136Z,99.90
2018-07-28T07:49:10.239Z,99.90
2018-07-28T07:51:39.337Z,99.90
2018-07-28T07:54:08.046Z,99.90
2018-07-28T07:56:37.053Z,99.90
2018-07-28T07:59:05.221Z,99.90
2018-07-28T08:01:34.193Z,99.10
2018-07-28T08:04:03.303Z,98.30
2018-07-28T08:06:31.710Z,98.70
2018-07-28T08:09:00.345Z,97.70
2018-07-28T08:11:29.801Z,97.80
2018-07-28T08:13:57.971Z,98.60
2018-07-28T08:16:26.593Z,98.30
2018-07-28T08:21:27.229Z,97.50
2018-07-28T08:23:56.206Z,97.50
2018-07-28T08:26:24.721Z,97.40
2018-07-28T08:28:52.815Z,97.00
2018-07-28T08:31:21.201Z,95.60
2018-07-28T08:33:51.148Z,94.50
2018-07-28T08:36:19.744Z,96.30
2018-07-28T08:38:47.956Z,94.30
2018-07-28T10:08:11.905Z,83.10
2018-07-28T10:10:40.637Z,78.70
2018-07-28T10:18:05.761Z,78.60
2018-07-28T10:23:02.426Z,79.80
2018-07-28T10:25:31.081Z,75.90
2018-07-28T10:27:59.173Z,74.80
2018-07-28T10:30:28.141Z,72.90
2018-07-28T10:32:56.829Z,72.40
2018-07-28T10:35:25.913Z,71.30
2018-07-28T10:37:54.361Z,68.70
2018-07-28T10:40:22.789Z,70.00
2018-07-28T10:42:51.408Z,73.30
2018-07-28T10:47:49.640Z,71.50
2018-07-28T10:50:18.456Z,70.00
2018-07-28T10:52:46.651Z,67.50
2018-07-28T10:55:14.941Z,67.80
2018-07-28T11:07:36.011Z,72.20
2018-07-28T11:10:04.722Z,72.10
2018-07-28T11:12:32.925Z,69.60
2018-07-28T11:15:01.009Z,68.80
2018-07-28T11:17:29.649Z,72.20
2018-07-28T11:19:58.913Z,73.20
2018-07-28T11:22:27.072Z,71.30
2018-07-28T11:24:55.217Z,66.70
2018-07-28T11:27:23.399Z,67.10
2018-07-28T11:29:51.475Z,65.30
2018-07-28T11:32:31.373Z,66.40
2018-07-28T11:35:11.429Z,65.80
2018-07-28T11:37:54.928Z,67.70
2018-07-28T11:40:35.439Z,68.40
2018-07-28T11:45:38.069Z,68.90
2018-07-28T11:48:06.905Z,69.90
2018-07-28T11:50:35.544Z,71.80
2018-07-28T11:53:03.862Z,71.70
2018-07-28T11:55:32.241Z,72.50
2018-07-28T11:58:00.821Z,72.30
2018-07-28T12:00:29.415Z,72.80
2018-07-28T12:02:57.553Z,73.20
2018-07-28T12:05:25.791Z,72.90
2018-07-28T12:07:53.936Z,71.90
2018-07-28T12:10:23.389Z,73.30
2018-07-28T12:12:52.222Z,73.70
2018-07-28T12:15:21.286Z,72.80
2018-07-28T12:17:49.805Z,71.50
2018-07-28T12:20:17.941Z,70.70
2018-07-28T12:22:46.688Z,72.00
2018-07-28T12:25:15.329Z,71.80
2018-07-28T12:27:43.397Z,68.30
2018-07-28T12:30:12.006Z,67.10
2018-07-28T12:32:40.705Z,66.00
2018-07-28T12:35:08.773Z,68.50
2018-07-28T12:37:37.573Z,67.60
2018-07-28T12:40:07.205Z,65.20
2018-07-28T12:47:32.777Z,64.60
2018-07-28T12:50:02.327Z,65.70
2018-07-28T12:52:30.494Z,65.20
2018-07-28T12:54:59.516Z,64.50
2018-07-28T12:57:27.844Z,64.40
2018-07-28T12:59:55.932Z,64.40
2018-07-28T13:02:24.442Z,65.30
2018-07-28T13:04:53.421Z,64.80
2018-07-28T13:07:22.461Z,65.60
2018-07-28T13:09:50.686Z,65.10
2018-07-28T13:12:19.447Z,61.00
2018-07-28T13:14:47.696Z,60.80
2018-07-28T13:17:16.959Z,59.20
2018-07-28T13:19:45.295Z,58.50
2018-07-28T13:22:14.227Z,59.90
2018-07-28T13:24:42.673Z,61.60
2018-07-28T13:27:11.164Z,63.10
2018-07-28T13:29:40.350Z,64.60
2018-07-28T13:32:09.386Z,66.40
2018-07-28T13:34:37.984Z,67.50
2018-07-28T13:37:07.889Z,67.00
2018-07-28T13:39:36.132Z,67.30
2018-07-28T13:42:04.871Z,67.90
2018-07-28T13:44:33.125Z,68.60
2018-07-28T13:47:01.253Z,67.90
2018-07-28T13:49:29.456Z,68.00
2018-07-28T13:51:58.613Z,69.60
2018-07-28T13:54:26.887Z,70.30
2018-07-28T13:59:24.097Z,71.00
2018-07-28T14:01:52.751Z,78.70
2018-07-28T14:04:21.545Z,85.00
2018-07-28T14:06:50.109Z,90.50
2018-07-28T14:11:46.354Z,96.80
2018-07-28T14:16:43.722Z,99.90
2018-07-28T14:19:11.869Z,99.90
2018-07-28T14:21:40.052Z,99.90
2018-07-28T14:24:08.509Z,99.90
2018-07-28T14:26:36.729Z,99.90
2018-07-28T14:29:06.562Z,99.90
2018-07-28T14:31:35.218Z,99.90
2018-07-28T14:36:31.545Z,99.90
2018-07-28T14:38:59.825Z,99.90
2018-07-28T14:41:27.957Z,99.90
2018-07-28T14:43:56.209Z,99.90
2018-07-28T14:48:52.973Z,99.90
2018-07-28T14:56:18.465Z,99.90
2018-07-28T14:58:46.537Z,99.90
2018-07-28T15:01:15.154Z,99.90
2018-07-28T15:03:43.473Z,99.90
2018-07-28T15:08:40.577Z,99.90
2018-07-28T15:11:08.736Z,99.90
2018-07-28T15:13:36.917Z,99.90
2018-07-28T15:16:06.267Z,99.90
2018-07-28T15:18:34.612Z,99.90
2018-07-28T15:21:02.976Z,99.90
2018-07-28T15:23:31.710Z,99.90
2018-07-28T15:25:59.828Z,99.90
2018-07-28T15:28:28.074Z,99.90
2018-07-28T15:33:24.880Z,99.90
2018-07-28T15:35:53.804Z,99.90
2018-07-28T15:38:22.522Z,99.90
2018-07-28T15:43:19.140Z,99.90
2018-07-28T15:45:47.734Z,99.90
2018-07-28T15:48:16.496Z,99.90
2018-07-28T15:50:45.202Z,99.90
2018-07-28T15:53:13.349Z,99.90
2018-07-28T15:55:42.365Z,99.90
2018-07-28T15:58:11.165Z,99.90
2018-07-28T16:00:39.325Z,99.90
2018-07-28T16:03:07.817Z,99.90
2018-07-28T16:05:36.245Z,99.90
2018-07-28T16:08:05.001Z,99.90
2018-07-28T16:10:33.742Z,99.90
2018-07-28T16:13:03.166Z,99.90
2018-07-28T16:15:32.057Z,99.90
2018-07-28T16:18:00.346Z,99.90
2018-07-28T16:20:28.473Z,99.90
2018-07-28T16:22:57.193Z,99.90
2018-07-28T16:25:25.457Z,99.90
2018-07-28T16:27:55.392Z,99.90
2018-07-28T16:30:24.041Z,99.90
2018-07-28T16:32:52.237Z,99.90
2018-07-28T16:35:21.105Z,99.90
2018-07-28T16:37:50.117Z,99.90
2018-07-28T16:40:18.475Z,99.90
2018-07-28T16:42:48.181Z,99.90
2018-07-28T16:45:16.404Z,99.90
2018-07-28T16:47:45.141Z,99.90
2018-07-28T16:50:13.373Z,99.90
2018-07-28T16:52:42.237Z,99.90
2018-07-28T16:55:10.837Z,99.90
2018-07-28T16:57:40.019Z,99.90
2018-07-28T17:00:09.689Z,99.90
2018-07-28T17:05:06.305Z,99.90
2018-07-28T17:07:35.137Z,99.90
2018-07-28T17:12:33.399Z,99.90
2018-07-28T17:15:01.549Z,99.90
2018-07-28T17:17:29.968Z,99.90
2018-07-28T17:19:58.110Z,99.90
2018-07-28T17:22:26.367Z,99.90
2018-07-28T17:24:55.985Z,99.90
2018-07-28T17:27:25.693Z,99.90
2018-07-28T17:29:54.193Z,99.90
2018-07-28T17:32:24.256Z,99.90
2018-07-28T17:37:21.594Z,99.90
2018-07-28T17:39:50.252Z,99.90
2018-07-28T17:42:18.477Z,99.90
2018-07-28T17:44:47.325Z,99.90
2018-07-28T17:47:16.072Z,99.90
2018-07-28T17:52:12.209Z,99.90
2018-07-28T17:57:10.228Z,99.90
2018-07-28T17:59:39.093Z,99.90
2018-07-28T18:02:07.517Z,99.90
2018-07-28T18:04:35.769Z,99.90
2018-07-28T18:07:04.814Z,99.90
2018-07-28T18:09:33.397Z,99.90
2018-07-28T18:12:02.781Z,99.90
2018-07-28T18:14:32.309Z,99.90
2018-07-28T18:17:00.869Z,99.90
2018-07-28T18:19:28.991Z,99.90
2018-07-28T18:21:57.030Z,99.90
2018-07-28T18:24:25.189Z,99.90
2018-07-28T18:26:53.306Z,99.90
2018-07-28T18:31:50.145Z,99.90
2018-07-28T18:34:18.233Z,99.90
2018-07-28T18:39:15.076Z,99.90
2018-07-28T18:41:44.078Z,99.90
2018-07-28T18:44:12.841Z,99.90
2018-07-28T18:46:41.550Z,99.90
2018-07-28T18:49:10.274Z,99.90
2018-07-28T18:51:38.389Z,99.90
2018-07-28T18:54:07.432Z,99.90
2018-07-28T18:59:04.234Z,99.90
2018-07-28T19:01:32.934Z,99.90
2018-07-28T19:04:01.002Z,99.90
2018-07-28T19:06:29.797Z,99.90
2018-07-28T19:09:03.587Z,99.90
2018-07-28T19:11:33.165Z,99.90
2018-07-28T19:14:07.261Z,99.90
2018-07-28T19:16:35.697Z,99.90
2018-07-28T19:19:09.869Z,99.90
2018-07-28T19:26:35.543Z,99.90
2018-07-28T19:29:09.413Z,99.90
2018-07-28T19:31:37.944Z,99.90
2018-07-28T19:34:06.568Z,99.90
2018-07-28T19:36:40.737Z,99.90
2018-07-28T19:39:10.625Z,99.90
2018-07-28T19:44:13.627Z,99.90
2018-07-28T19:46:41.742Z,99.90
2018-07-28T19:49:10.740Z,99.90
2018-07-28T19:51:39.198Z,99.90
2018-07-28T19:54:07.960Z,99.90
2018-07-28T19:56:36.041Z,99.90
2018-07-28T20:01:33.473Z,99.90
2018-07-28T20:04:01.977Z,99.90
2018-07-28T20:06:31.763Z,99.90
2018-07-28T20:09:00.117Z,99.90
2018-07-28T20:11:28.713Z,99.90
2018-07-28T20:15:00.370Z,99.90
2018-07-28T20:17:28.758Z,99.90
2018-07-28T20:19:57.005Z,99.90
2018-07-28T20:22:25.417Z,99.90
2018-07-28T20:24:53.691Z,99.90
2018-07-28T20:27:21.902Z,99.90
2018-07-28T20:29:50.257Z,99.90
2018-07-28T20:32:18.362Z,99.90
2018-07-28T20:34:46.609Z,99.90
2018-07-28T20:37:14.948Z,99.90
2018-07-28T20:39:43.774Z,99.90
2018-07-28T20:42:11.986Z,99.90
2018-07-28T20:44:40.928Z,99.90
2018-07-28T20:47:09.619Z,99.90
2018-07-28T20:49:38.470Z,99.90
2018-07-28T20:57:03.682Z,99.90
2018-07-28T20:59:32.805Z,99.90
2018-07-28T21:02:02.377Z,99.90
2018-07-28T21:04:30.446Z,99.90
2018-07-28T21:06:58.653Z,99.90
2018-07-28T21:11:55.929Z,99.90
2018-07-28T21:16:55.433Z,99.90
2018-07-28T21:19:24.179Z,99.90
2018-07-28T21:21:54.671Z,99.90
2018-07-28T21:26:50.776Z,99.90
2018-07-28T21:29:19.133Z,99.90
2018-07-28T21:31:47.753Z,99.90
2018-07-28T21:34:15.870Z,99.90
2018-07-28T21:36:44.066Z,99.90
2018-07-28T21:39:12.444Z,99.90
2018-07-28T21:41:41.673Z,99.90
2018-07-28T21:44:09.817Z,99.90
2018-07-28T21:46:38.593Z,99.90
2018-07-28T21:49:07.030Z,99.90
2018-07-28T21:51:35.109Z,99.90
2018-07-28T21:54:03.265Z,99.90
2018-07-28T21:56:32.215Z,99.90
2018-07-28T21:59:01.634Z,99.90
2018-07-28T22:01:30.818Z,99.90
2018-07-28T22:04:02.512Z,99.90
2018-07-28T22:06:34.550Z,99.90
2018-07-28T22:09:02.937Z,99.90
2018-07-28T22:11:31.703Z,99.90
2018-07-28T22:13:59.919Z,99.90
2018-07-28T22:16:29.263Z,99.90
2018-07-28T22:21:25.771Z,99.90
2018-07-28T22:23:53.841Z,99.90
2018-07-28T22:26:22.032Z,99.90
2018-07-28T22:28:50.226Z,99.90
2018-07-28T22:33:46.309Z,99.90
2018-07-28T22:36:15.206Z,99.90
2018-07-28T22:38:44.218Z,99.90
2018-07-28T22:41:13.133Z,99.90
2018-07-28T22:43:41.570Z,99.90
2018-07-28T22:46:10.610Z,99.90
2018-07-28T22:48:39.052Z,99.90
2018-07-28T22:51:07.657Z,99.90
2018-07-28T22:53:36.041Z,99.90
2018-07-28T22:56:04.541Z,99.90
2018-07-28T22:58:33.129Z,99.90
2018-07-28T23:01:01.717Z,99.90
2018-07-28T23:03:30.638Z,99.90
2018-07-28T23:05:59.769Z,99.90
2018-07-28T23:08:27.861Z,99.90
2018-07-28T23:10:57.668Z,99.90
2018-07-28T23:13:26.276Z,99.90
2018-07-28T23:15:54.693Z,99.90
2018-07-28T23:18:23.477Z,99.90
2018-07-28T23:20:52.165Z,99.90
2018-07-28T23:23:20.525Z,99.90
2018-07-28T23:28:18.181Z,99.90
2018-07-28T23:33:16.457Z,99.90
2018-07-28T23:35:44.548Z,99.90
2018-07-28T23:38:14.497Z,99.90
2018-07-28T23:40:43.341Z,99.90
2018-07-28T23:43:12.014Z,99.90
2018-07-28T23:45:41.699Z,99.90
2018-07-28T23:48:10.261Z,99.90
2018-07-28T23:50:39.529Z,99.90
2018-07-28T23:53:07.701Z,99.90
2018-07-28T23:55:36.175Z,99.90
2018-07-28T23:58:04.290Z,99.90
